Terminal Aerodrome Forecast
Issued by NWS Omaha/Valley, NE

Home | Current Version | Previous Version | Graphics & Text | Print | Product List | Glossary Off
Versions: 1 2 3 4 5 6 7 8 9 10 11 12 13 14 15 16 17 18 19 20 21 22 23 24 25 26 27 28 29 30 31 32 33 34

000
FTUS43 KOAX 251726
TAFOFK
TAF
KOFK 251726Z 2518/2618 34012KT P6SM OVC012
     FM260100 24005KT P6SM BKN025
     FM260600 19005KT P6SM BKN040
     FM261200 30012KT P6SM SCT120=

USA.gov is the U.S. government's official web portal to all federal, state and local government web resources and services.